sensor_id;sensor_type;location;lat;lon;timestamp;P1;durP1;ratioP1;P2;durP2;ratioP2
54460;SDS011;69977;49.414;11.010;2024-01-11T00:00:35;26.93;;;14.20;;
54460;SDS011;69977;49.414;11.010;2024-01-11T00:03:00;23.17;;;13.17;;
54460;SDS011;69977;49.414;11.010;2024-01-11T00:05:26;27.50;;;13.90;;
54460;SDS011;69977;49.414;11.010;2024-01-11T00:07:52;23.73;;;15.03;;
54460;SDS011;69977;49.414;11.010;2024-01-11T00:10:18;21.70;;;13.70;;
54460;SDS011;69977;49.414;11.010;2024-01-11T00:12:44;21.97;;;12.90;;
54460;SDS011;69977;49.414;11.010;2024-01-11T00:15:10;25.93;;;13.43;;
54460;SDS011;69977;49.414;11.010;2024-01-11T00:17:36;23.07;;;13.03;;
54460;SDS011;69977;49.414;11.010;2024-01-11T00:20:02;20.93;;;12.13;;
54460;SDS011;69977;49.414;11.010;2024-01-11T00:22:28;23.80;;;13.47;;
54460;SDS011;69977;49.414;11.010;2024-01-11T00:24:53;25.13;;;14.00;;
54460;SDS011;69977;49.414;11.010;2024-01-11T00:27:19;22.60;;;13.47;;
54460;SDS011;69977;49.414;11.010;2024-01-11T00:29:45;25.60;;;13.37;;
54460;SDS011;69977;49.414;11.010;2024-01-11T00:32:12;19.73;;;12.87;;
54460;SDS011;69977;49.414;11.010;2024-01-11T00:34:38;21.60;;;13.70;;
54460;SDS011;69977;49.414;11.010;2024-01-11T00:37:04;20.60;;;12.93;;
54460;SDS011;69977;49.414;11.010;2024-01-11T00:39:30;22.63;;;12.47;;
54460;SDS011;69977;49.414;11.010;2024-01-11T00:41:55;28.20;;;13.73;;
54460;SDS011;69977;49.414;11.010;2024-01-11T00:44:21;18.63;;;12.23;;
54460;SDS011;69977;49.414;11.010;2024-01-11T00:46:47;24.47;;;14.07;;
54460;SDS011;69977;49.414;11.010;2024-01-11T00:49:13;24.03;;;12.33;;
54460;SDS011;69977;49.414;11.010;2024-01-11T00:51:39;23.47;;;12.17;;
54460;SDS011;69977;49.414;11.010;2024-01-11T00:54:04;18.93;;;12.73;;
54460;SDS011;69977;49.414;11.010;2024-01-11T00:56:30;22.17;;;13.53;;
54460;SDS011;69977;49.414;11.010;2024-01-11T00:58:56;21.50;;;11.87;;
54460;SDS011;69977;49.414;11.010;2024-01-11T01:01:22;20.63;;;12.13;;
54460;SDS011;69977;49.414;11.010;2024-01-11T01:03:48;19.47;;;11.47;;
54460;SDS011;69977;49.414;11.010;2024-01-11T01:06:14;19.37;;;12.20;;
54460;SDS011;69977;49.414;11.010;2024-01-11T01:08:39;21.70;;;12.03;;
54460;SDS011;69977;49.414;11.010;2024-01-11T01:11:05;20.93;;;12.30;;
54460;SDS011;69977;49.414;11.010;2024-01-11T01:13:31;19.50;;;12.27;;
54460;SDS011;69977;49.414;11.010;2024-01-11T01:15:57;25.27;;;12.53;;
54460;SDS011;69977;49.414;11.010;2024-01-11T01:18:23;21.10;;;12.13;;
54460;SDS011;69977;49.414;11.010;2024-01-11T01:20:49;20.23;;;11.67;;
54460;SDS011;69977;49.414;11.010;2024-01-11T01:23:15;19.87;;;11.60;;
54460;SDS011;69977;49.414;11.010;2024-01-11T01:25:41;19.97;;;12.23;;
54460;SDS011;69977;49.414;11.010;2024-01-11T01:28:07;19.00;;;12.07;;
54460;SDS011;69977;49.414;11.010;2024-01-11T01:30:33;22.07;;;12.40;;
54460;SDS011;69977;49.414;11.010;2024-01-11T01:32:59;21.50;;;11.23;;
54460;SDS011;69977;49.414;11.010;2024-01-11T01:35:25;16.67;;;11.37;;
54460;SDS011;69977;49.414;11.010;2024-01-11T01:37:51;21.73;;;12.10;;
54460;SDS011;69977;49.414;11.010;2024-01-11T01:40:16;21.40;;;13.57;;
54460;SDS011;69977;49.414;11.010;2024-01-11T01:42:43;18.27;;;12.13;;
54460;SDS011;69977;49.414;11.010;2024-01-11T01:45:09;23.80;;;14.40;;
54460;SDS011;69977;49.414;11.010;2024-01-11T01:47:36;19.60;;;12.70;;
54460;SDS011;69977;49.414;11.010;2024-01-11T01:50:03;19.50;;;12.43;;
54460;SDS011;69977;49.414;11.010;2024-01-11T01:52:30;18.30;;;11.87;;
54460;SDS011;69977;49.414;11.010;2024-01-11T01:54:58;16.60;;;11.53;;
54460;SDS011;69977;49.414;11.010;2024-01-11T01:57:24;17.77;;;12.23;;
54460;SDS011;69977;49.414;11.010;2024-01-11T01:59:50;23.40;;;13.03;;
54460;SDS011;69977;49.414;11.010;2024-01-11T02:02:20;24.50;;;12.30;;
54460;SDS011;69977;49.414;11.010;2024-01-11T02:04:47;27.53;;;13.07;;
54460;SDS011;69977;49.414;11.010;2024-01-11T02:07:13;22.07;;;12.80;;
54460;SDS011;69977;49.414;11.010;2024-01-11T02:09:39;20.50;;;11.87;;
54460;SDS011;69977;49.414;11.010;2024-01-11T02:12:06;22.63;;;12.13;;
54460;SDS011;69977;49.414;11.010;2024-01-11T02:14:37;24.10;;;11.60;;
54460;SDS011;69977;49.414;11.010;2024-01-11T02:17:03;22.07;;;12.43;;
54460;SDS011;69977;49.414;11.010;2024-01-11T02:19:29;21.07;;;12.73;;
54460;SDS011;69977;49.414;11.010;2024-01-11T02:21:55;21.97;;;12.90;;
54460;SDS011;69977;49.414;11.010;2024-01-11T02:24:25;16.93;;;11.77;;
54460;SDS011;69977;49.414;11.010;2024-01-11T02:27:00;16.90;;;11.23;;
54460;SDS011;69977;49.414;11.010;2024-01-11T02:29:30;23.87;;;13.73;;
54460;SDS011;69977;49.414;11.010;2024-01-11T02:31:56;18.33;;;11.53;;
54460;SDS011;69977;49.414;11.010;2024-01-11T02:34:23;19.37;;;11.83;;
54460;SDS011;69977;49.414;11.010;2024-01-11T02:36:51;21.47;;;12.53;;
54460;SDS011;69977;49.414;11.010;2024-01-11T02:39:19;23.67;;;12.10;;
54460;SDS011;69977;49.414;11.010;2024-01-11T02:41:45;20.10;;;12.80;;
54460;SDS011;69977;49.414;11.010;2024-01-11T02:44:12;19.50;;;11.93;;
54460;SDS011;69977;49.414;11.010;2024-01-11T02:46:38;24.40;;;12.90;;
54460;SDS011;69977;49.414;11.010;2024-01-11T02:49:04;22.80;;;11.43;;
54460;SDS011;69977;49.414;11.010;2024-01-11T02:51:30;20.70;;;12.97;;
54460;SDS011;69977;49.414;11.010;2024-01-11T02:53:56;19.10;;;11.67;;
54460;SDS011;69977;49.414;11.010;2024-01-11T02:56:21;18.80;;;11.67;;
54460;SDS011;69977;49.414;11.010;2024-01-11T02:58:49;21.13;;;11.27;;
54460;SDS011;69977;49.414;11.010;2024-01-11T03:01:14;19.93;;;12.37;;
54460;SDS011;69977;49.414;11.010;2024-01-11T03:03:41;24.60;;;12.53;;
54460;SDS011;69977;49.414;11.010;2024-01-11T03:06:07;21.20;;;12.73;;
54460;SDS011;69977;49.414;11.010;2024-01-11T03:08:32;22.33;;;11.20;;
54460;SDS011;69977;49.414;11.010;2024-01-11T03:10:58;22.43;;;12.73;;
54460;SDS011;69977;49.414;11.010;2024-01-11T03:13:24;19.87;;;11.40;;
54460;SDS011;69977;49.414;11.010;2024-01-11T03:15:51;17.53;;;11.13;;
54460;SDS011;69977;49.414;11.010;2024-01-11T03:18:16;19.53;;;11.70;;
54460;SDS011;69977;49.414;11.010;2024-01-11T03:20:42;22.63;;;12.30;;
54460;SDS011;69977;49.414;11.010;2024-01-11T03:23:08;25.10;;;13.10;;
54460;SDS011;69977;49.414;11.010;2024-01-11T03:25:34;19.43;;;12.50;;
54460;SDS011;69977;49.414;11.010;2024-01-11T03:28:00;23.10;;;12.73;;
54460;SDS011;69977;49.414;11.010;2024-01-11T03:30:25;19.33;;;12.60;;
54460;SDS011;69977;49.414;11.010;2024-01-11T03:32:52;22.37;;;12.83;;
54460;SDS011;69977;49.414;11.010;2024-01-11T03:35:18;21.03;;;13.43;;
54460;SDS011;69977;49.414;11.010;2024-01-11T03:37:44;22.73;;;11.33;;
54460;SDS011;69977;49.414;11.010;2024-01-11T03:40:10;24.10;;;12.60;;
54460;SDS011;69977;49.414;11.010;2024-01-11T03:42:36;20.03;;;12.20;;
54460;SDS011;69977;49.414;11.010;2024-01-11T03:45:03;22.07;;;12.97;;
54460;SDS011;69977;49.414;11.010;2024-01-11T03:47:29;22.83;;;13.17;;
54460;SDS011;69977;49.414;11.010;2024-01-11T03:49:55;23.43;;;13.43;;
54460;SDS011;69977;49.414;11.010;2024-01-11T03:52:21;21.57;;;12.63;;
54460;SDS011;69977;49.414;11.010;2024-01-11T03:54:47;22.70;;;12.73;;
54460;SDS011;69977;49.414;11.010;2024-01-11T03:57:13;24.97;;;12.63;;
54460;SDS011;69977;49.414;11.010;2024-01-11T03:59:39;22.63;;;12.77;;
54460;SDS011;69977;49.414;11.010;2024-01-11T04:02:05;19.23;;;12.43;;
54460;SDS011;69977;49.414;11.010;2024-01-11T04:04:32;22.03;;;12.67;;
54460;SDS011;69977;49.414;11.010;2024-01-11T04:06:58;24.03;;;14.20;;
54460;SDS011;69977;49.414;11.010;2024-01-11T04:09:24;24.30;;;12.70;;
54460;SDS011;69977;49.414;11.010;2024-01-11T04:11:50;21.70;;;12.73;;
54460;SDS011;69977;49.414;11.010;2024-01-11T04:14:15;22.03;;;12.20;;
54460;SDS011;69977;49.414;11.010;2024-01-11T04:16:42;22.30;;;13.00;;
54460;SDS011;69977;49.414;11.010;2024-01-11T04:19:08;19.97;;;12.13;;
54460;SDS011;69977;49.414;11.010;2024-01-11T04:21:35;22.37;;;12.50;;
54460;SDS011;69977;49.414;11.010;2024-01-11T04:24:04;21.23;;;12.73;;
54460;SDS011;69977;49.414;11.010;2024-01-11T04:26:33;22.60;;;12.77;;
54460;SDS011;69977;49.414;11.010;2024-01-11T04:28:59;19.87;;;13.43;;
54460;SDS011;69977;49.414;11.010;2024-01-11T04:31:25;22.83;;;11.97;;
54460;SDS011;69977;49.414;11.010;2024-01-11T04:33:51;22.20;;;13.00;;
54460;SDS011;69977;49.414;11.010;2024-01-11T04:36:17;19.50;;;11.60;;
54460;SDS011;69977;49.414;11.010;2024-01-11T04:38:43;19.30;;;12.13;;
54460;SDS011;69977;49.414;11.010;2024-01-11T04:41:09;21.57;;;12.73;;
54460;SDS011;69977;49.414;11.010;2024-01-11T04:43:39;25.73;;;13.73;;
54460;SDS011;69977;49.414;11.010;2024-01-11T04:46:22;20.23;;;12.00;;
54460;SDS011;69977;49.414;11.010;2024-01-11T04:48:49;21.03;;;12.87;;
54460;SDS011;69977;49.414;11.010;2024-01-11T04:51:15;23.37;;;12.53;;
54460;SDS011;69977;49.414;11.010;2024-01-11T04:53:42;16.33;;;11.57;;
54460;SDS011;69977;49.414;11.010;2024-01-11T04:56:10;22.27;;;13.43;;
54460;SDS011;69977;49.414;11.010;2024-01-11T04:58:38;21.00;;;12.00;;
54460;SDS011;69977;49.414;11.010;2024-01-11T05:01:05;21.37;;;13.00;;
54460;SDS011;69977;49.414;11.010;2024-01-11T05:03:32;19.60;;;11.50;;
54460;SDS011;69977;49.414;11.010;2024-01-11T05:05:58;19.33;;;10.80;;
54460;SDS011;69977;49.414;11.010;2024-01-11T05:08:27;21.87;;;12.20;;
54460;SDS011;69977;49.414;11.010;2024-01-11T05:10:53;29.00;;;14.17;;
54460;SDS011;69977;49.414;11.010;2024-01-11T05:13:19;20.73;;;12.47;;
54460;SDS011;69977;49.414;11.010;2024-01-11T05:15:45;24.73;;;12.77;;
54460;SDS011;69977;49.414;11.010;2024-01-11T05:18:11;28.43;;;12.83;;
54460;SDS011;69977;49.414;11.010;2024-01-11T05:20:37;19.50;;;10.97;;
54460;SDS011;69977;49.414;11.010;2024-01-11T05:23:04;21.33;;;13.17;;
54460;SDS011;69977;49.414;11.010;2024-01-11T05:25:30;23.20;;;13.47;;
54460;SDS011;69977;49.414;11.010;2024-01-11T05:28:01;22.93;;;12.40;;
54460;SDS011;69977;49.414;11.010;2024-01-11T05:30:28;23.23;;;12.87;;
54460;SDS011;69977;49.414;11.010;2024-01-11T05:32:54;28.60;;;13.70;;
54460;SDS011;69977;49.414;11.010;2024-01-11T05:35:20;24.23;;;13.23;;
54460;SDS011;69977;49.414;11.010;2024-01-11T05:37:49;21.20;;;12.20;;
54460;SDS011;69977;49.414;11.010;2024-01-11T05:40:15;20.60;;;11.53;;
54460;SDS011;69977;49.414;11.010;2024-01-11T05:42:41;22.73;;;12.87;;
54460;SDS011;69977;49.414;11.010;2024-01-11T05:45:07;25.57;;;13.73;;
54460;SDS011;69977;49.414;11.010;2024-01-11T05:47:33;27.20;;;12.93;;
54460;SDS011;69977;49.414;11.010;2024-01-11T05:49:59;19.60;;;11.27;;
54460;SDS011;69977;49.414;11.010;2024-01-11T05:52:25;20.83;;;12.80;;
54460;SDS011;69977;49.414;11.010;2024-01-11T05:54:50;24.63;;;12.93;;
54460;SDS011;69977;49.414;11.010;2024-01-11T05:57:16;25.87;;;12.77;;
54460;SDS011;69977;49.414;11.010;2024-01-11T05:59:45;19.60;;;11.70;;
54460;SDS011;69977;49.414;11.010;2024-01-11T06:02:12;25.73;;;12.30;;
54460;SDS011;69977;49.414;11.010;2024-01-11T06:04:38;21.90;;;12.23;;
54460;SDS011;69977;49.414;11.010;2024-01-11T06:07:05;24.97;;;13.00;;
54460;SDS011;69977;49.414;11.010;2024-01-11T06:09:31;21.17;;;12.67;;
54460;SDS011;69977;49.414;11.010;2024-01-11T06:11:56;21.63;;;11.97;;
54460;SDS011;69977;49.414;11.010;2024-01-11T06:14:22;23.90;;;13.63;;
54460;SDS011;69977;49.414;11.010;2024-01-11T06:16:48;20.17;;;13.17;;
54460;SDS011;69977;49.414;11.010;2024-01-11T06:19:14;23.53;;;12.93;;
54460;SDS011;69977;49.414;11.010;2024-01-11T06:21:40;18.10;;;11.03;;
54460;SDS011;69977;49.414;11.010;2024-01-11T06:24:06;23.30;;;12.90;;
54460;SDS011;69977;49.414;11.010;2024-01-11T06:26:32;23.50;;;12.67;;
54460;SDS011;69977;49.414;11.010;2024-01-11T06:28:57;21.93;;;12.37;;
54460;SDS011;69977;49.414;11.010;2024-01-11T06:31:24;24.57;;;13.30;;
54460;SDS011;69977;49.414;11.010;2024-01-11T06:33:49;20.73;;;12.17;;
54460;SDS011;69977;49.414;11.010;2024-01-11T06:36:15;19.83;;;12.43;;
54460;SDS011;69977;49.414;11.010;2024-01-11T06:38:41;22.20;;;13.63;;
54460;SDS011;69977;49.414;11.010;2024-01-11T06:41:07;20.20;;;12.50;;
54460;SDS011;69977;49.414;11.010;2024-01-11T06:43:32;24.10;;;13.47;;
54460;SDS011;69977;49.414;11.010;2024-01-11T06:46:02;22.50;;;11.63;;
54460;SDS011;69977;49.414;11.010;2024-01-11T06:48:31;21.33;;;13.57;;
54460;SDS011;69977;49.414;11.010;2024-01-11T06:50:57;24.47;;;13.93;;
54460;SDS011;69977;49.414;11.010;2024-01-11T06:53:23;23.67;;;12.60;;
54460;SDS011;69977;49.414;11.010;2024-01-11T06:55:49;22.70;;;12.43;;
54460;SDS011;69977;49.414;11.010;2024-01-11T06:58:17;24.10;;;12.37;;
54460;SDS011;69977;49.414;11.010;2024-01-11T07:00:45;20.17;;;11.80;;
54460;SDS011;69977;49.414;11.010;2024-01-11T07:03:11;23.70;;;13.47;;
54460;SDS011;69977;49.414;11.010;2024-01-11T07:05:37;29.57;;;14.43;;
54460;SDS011;69977;49.414;11.010;2024-01-11T07:08:03;26.00;;;13.17;;
54460;SDS011;69977;49.414;11.010;2024-01-11T07:10:29;23.80;;;13.60;;
54460;SDS011;69977;49.414;11.010;2024-01-11T07:12:55;24.80;;;13.57;;
54460;SDS011;69977;49.414;11.010;2024-01-11T07:15:21;24.43;;;13.87;;
54460;SDS011;69977;49.414;11.010;2024-01-11T07:17:46;27.27;;;14.77;;
54460;SDS011;69977;49.414;11.010;2024-01-11T07:20:12;24.43;;;13.83;;
54460;SDS011;69977;49.414;11.010;2024-01-11T07:22:40;25.77;;;13.80;;
54460;SDS011;69977;49.414;11.010;2024-01-11T07:25:06;23.60;;;13.70;;
54460;SDS011;69977;49.414;11.010;2024-01-11T07:27:32;25.90;;;14.50;;
54460;SDS011;69977;49.414;11.010;2024-01-11T07:29:58;22.97;;;13.97;;
54460;SDS011;69977;49.414;11.010;2024-01-11T07:32:24;31.27;;;15.90;;
54460;SDS011;69977;49.414;11.010;2024-01-11T07:34:50;26.40;;;16.00;;
54460;SDS011;69977;49.414;11.010;2024-01-11T07:37:16;27.10;;;14.67;;
54460;SDS011;69977;49.414;11.010;2024-01-11T07:39:41;30.00;;;14.87;;
54460;SDS011;69977;49.414;11.010;2024-01-11T07:42:07;23.20;;;14.43;;
54460;SDS011;69977;49.414;11.010;2024-01-11T07:44:33;25.27;;;14.60;;
54460;SDS011;69977;49.414;11.010;2024-01-11T07:46:59;27.17;;;15.03;;
54460;SDS011;69977;49.414;11.010;2024-01-11T07:49:24;26.63;;;15.17;;
54460;SDS011;69977;49.414;11.010;2024-01-11T07:51:50;23.73;;;13.63;;
54460;SDS011;69977;49.414;11.010;2024-01-11T07:54:16;25.53;;;15.37;;
54460;SDS011;69977;49.414;11.010;2024-01-11T07:56:42;25.37;;;14.73;;
54460;SDS011;69977;49.414;11.010;2024-01-11T07:59:08;22.57;;;13.13;;
54460;SDS011;69977;49.414;11.010;2024-01-11T08:01:37;24.17;;;13.33;;
54460;SDS011;69977;49.414;11.010;2024-01-11T08:04:03;27.03;;;14.13;;
54460;SDS011;69977;49.414;11.010;2024-01-11T08:06:29;22.13;;;12.93;;
54460;SDS011;69977;49.414;11.010;2024-01-11T08:08:56;26.33;;;14.63;;
54460;SDS011;69977;49.414;11.010;2024-01-11T08:11:22;22.60;;;13.43;;
54460;SDS011;69977;49.414;11.010;2024-01-11T08:13:47;24.40;;;14.50;;
54460;SDS011;69977;49.414;11.010;2024-01-11T08:16:17;27.37;;;14.47;;
54460;SDS011;69977;49.414;11.010;2024-01-11T08:18:45;27.70;;;15.17;;
54460;SDS011;69977;49.414;11.010;2024-01-11T08:21:12;23.67;;;14.13;;
54460;SDS011;69977;49.414;11.010;2024-01-11T08:23:39;23.53;;;14.37;;
54460;SDS011;69977;49.414;11.010;2024-01-11T08:26:12;20.90;;;13.90;;
54460;SDS011;69977;49.414;11.010;2024-01-11T08:28:39;27.50;;;15.67;;
54460;SDS011;69977;49.414;11.010;2024-01-11T08:31:05;23.57;;;13.63;;
54460;SDS011;69977;49.414;11.010;2024-01-11T08:33:31;28.53;;;15.10;;
54460;SDS011;69977;49.414;11.010;2024-01-11T08:35:57;28.20;;;15.97;;
54460;SDS011;69977;49.414;11.010;2024-01-11T08:38:23;24.50;;;15.37;;
54460;SDS011;69977;49.414;11.010;2024-01-11T08:40:50;23.53;;;12.57;;
54460;SDS011;69977;49.414;11.010;2024-01-11T08:43:39;25.13;;;15.57;;
54460;SDS011;69977;49.414;11.010;2024-01-11T08:46:05;27.30;;;14.30;;
54460;SDS011;69977;49.414;11.010;2024-01-11T08:48:30;24.50;;;14.83;;
54460;SDS011;69977;49.414;11.010;2024-01-11T08:50:56;22.53;;;14.63;;
54460;SDS011;69977;49.414;11.010;2024-01-11T08:53:22;26.53;;;15.90;;
54460;SDS011;69977;49.414;11.010;2024-01-11T08:55:48;25.67;;;15.70;;
54460;SDS011;69977;49.414;11.010;2024-01-11T08:58:13;24.63;;;14.83;;
54460;SDS011;69977;49.414;11.010;2024-01-11T09:00:39;26.30;;;14.67;;
54460;SDS011;69977;49.414;11.010;2024-01-11T09:03:05;24.23;;;14.83;;
54460;SDS011;69977;49.414;11.010;2024-01-11T09:05:31;26.83;;;15.03;;
54460;SDS011;69977;49.414;11.010;2024-01-11T09:07:57;25.80;;;15.03;;
54460;SDS011;69977;49.414;11.010;2024-01-11T09:10:22;23.20;;;14.10;;
54460;SDS011;69977;49.414;11.010;2024-01-11T09:12:48;28.53;;;16.40;;
54460;SDS011;69977;49.414;11.010;2024-01-11T09:15:14;27.80;;;15.03;;
54460;SDS011;69977;49.414;11.010;2024-01-11T09:17:40;24.77;;;14.60;;
54460;SDS011;69977;49.414;11.010;2024-01-11T09:20:06;29.03;;;15.57;;
54460;SDS011;69977;49.414;11.010;2024-01-11T09:22:32;25.13;;;15.00;;
54460;SDS011;69977;49.414;11.010;2024-01-11T09:24:57;25.97;;;15.73;;
54460;SDS011;69977;49.414;11.010;2024-01-11T09:27:23;25.67;;;14.70;;
54460;SDS011;69977;49.414;11.010;2024-01-11T09:29:49;27.03;;;15.30;;
54460;SDS011;69977;49.414;11.010;2024-01-11T09:32:15;26.30;;;14.87;;
54460;SDS011;69977;49.414;11.010;2024-01-11T09:34:41;28.57;;;16.13;;
54460;SDS011;69977;49.414;11.010;2024-01-11T09:37:07;26.43;;;16.10;;
54460;SDS011;69977;49.414;11.010;2024-01-11T09:39:33;20.90;;;14.57;;
54460;SDS011;69977;49.414;11.010;2024-01-11T09:41:59;27.10;;;15.50;;
54460;SDS011;69977;49.414;11.010;2024-01-11T09:44:34;27.20;;;15.07;;
54460;SDS011;69977;49.414;11.010;2024-01-11T09:47:02;25.53;;;16.00;;
54460;SDS011;69977;49.414;11.010;2024-01-11T09:49:31;24.67;;;15.63;;
54460;SDS011;69977;49.414;11.010;2024-01-11T09:52:00;28.60;;;15.90;;
54460;SDS011;69977;49.414;11.010;2024-01-11T09:54:27;31.73;;;16.40;;
54460;SDS011;69977;49.414;11.010;2024-01-11T09:56:54;27.90;;;16.53;;
54460;SDS011;69977;49.414;11.010;2024-01-11T09:59:23;27.30;;;15.67;;
54460;SDS011;69977;49.414;11.010;2024-01-11T10:01:50;29.10;;;17.33;;
54460;SDS011;69977;49.414;11.010;2024-01-11T10:04:16;28.80;;;15.90;;
54460;SDS011;69977;49.414;11.010;2024-01-11T10:06:42;27.73;;;16.37;;
54460;SDS011;69977;49.414;11.010;2024-01-11T10:09:09;24.97;;;15.70;;
54460;SDS011;69977;49.414;11.010;2024-01-11T10:11:35;26.03;;;16.53;;
54460;SDS011;69977;49.414;11.010;2024-01-11T10:14:01;27.23;;;16.67;;
54460;SDS011;69977;49.414;11.010;2024-01-11T10:16:28;29.97;;;17.03;;
54460;SDS011;69977;49.414;11.010;2024-01-11T10:18:54;28.17;;;16.57;;
54460;SDS011;69977;49.414;11.010;2024-01-11T10:21:21;25.80;;;15.83;;
54460;SDS011;69977;49.414;11.010;2024-01-11T10:23:47;23.00;;;15.57;;
54460;SDS011;69977;49.414;11.010;2024-01-11T10:26:17;26.00;;;16.73;;
54460;SDS011;69977;49.414;11.010;2024-01-11T10:28:44;29.37;;;18.23;;
54460;SDS011;69977;49.414;11.010;2024-01-11T10:31:11;32.10;;;16.63;;
54460;SDS011;69977;49.414;11.010;2024-01-11T10:33:37;28.00;;;16.80;;
54460;SDS011;69977;49.414;11.010;2024-01-11T10:36:03;28.67;;;17.63;;
54460;SDS011;69977;49.414;11.010;2024-01-11T10:38:31;26.57;;;15.60;;
54460;SDS011;69977;49.414;11.010;2024-01-11T10:41:04;22.87;;;15.27;;
54460;SDS011;69977;49.414;11.010;2024-01-11T10:43:31;23.47;;;15.80;;
54460;SDS011;69977;49.414;11.010;2024-01-11T10:46:00;26.63;;;16.33;;
54460;SDS011;69977;49.414;11.010;2024-01-11T10:48:30;32.03;;;15.77;;
54460;SDS011;69977;49.414;11.010;2024-01-11T10:51:00;25.87;;;15.80;;
54460;SDS011;69977;49.414;11.010;2024-01-11T10:56:05;25.80;;;16.43;;
54460;SDS011;69977;49.414;11.010;2024-01-11T10:58:34;26.17;;;16.37;;
54460;SDS011;69977;49.414;11.010;2024-01-11T11:01:01;27.57;;;15.37;;
54460;SDS011;69977;49.414;11.010;2024-01-11T11:03:27;27.53;;;16.67;;
54460;SDS011;69977;49.414;11.010;2024-01-11T11:05:56;28.10;;;15.80;;
54460;SDS011;69977;49.414;11.010;2024-01-11T11:08:24;25.67;;;16.13;;
54460;SDS011;69977;49.414;11.010;2024-01-11T11:10:55;22.47;;;14.77;;
54460;SDS011;69977;49.414;11.010;2024-01-11T11:13:25;25.43;;;15.10;;
54460;SDS011;69977;49.414;11.010;2024-01-11T11:15:51;24.93;;;16.00;;
54460;SDS011;69977;49.414;11.010;2024-01-11T11:18:18;24.77;;;15.37;;
54460;SDS011;69977;49.414;11.010;2024-01-11T11:20:46;25.33;;;16.30;;
54460;SDS011;69977;49.414;11.010;2024-01-11T11:23:17;25.33;;;15.03;;
54460;SDS011;69977;49.414;11.010;2024-01-11T11:25:47;24.63;;;14.87;;
54460;SDS011;69977;49.414;11.010;2024-01-11T11:28:15;20.87;;;14.40;;
54460;SDS011;69977;49.414;11.010;2024-01-11T11:30:42;21.13;;;13.60;;
54460;SDS011;69977;49.414;11.010;2024-01-11T11:35:36;23.00;;;14.67;;
54460;SDS011;69977;49.414;11.010;2024-01-11T11:38:02;25.60;;;15.47;;
54460;SDS011;69977;49.414;11.010;2024-01-11T11:40:36;20.73;;;13.60;;
54460;SDS011;69977;49.414;11.010;2024-01-11T11:43:08;21.67;;;14.23;;
54460;SDS011;69977;49.414;11.010;2024-01-11T11:45:34;24.83;;;14.60;;
54460;SDS011;69977;49.414;11.010;2024-01-11T11:48:01;23.60;;;13.87;;
54460;SDS011;69977;49.414;11.010;2024-01-11T11:50:29;31.07;;;15.63;;
54460;SDS011;69977;49.414;11.010;2024-01-11T11:52:56;21.97;;;14.77;;
54460;SDS011;69977;49.414;11.010;2024-01-11T11:55:23;23.53;;;14.70;;
54460;SDS011;69977;49.414;11.010;2024-01-11T11:57:53;25.57;;;15.43;;
54460;SDS011;69977;49.414;11.010;2024-01-11T12:00:22;28.80;;;15.50;;
54460;SDS011;69977;49.414;11.010;2024-01-11T12:02:49;22.87;;;15.00;;
54460;SDS011;69977;49.414;11.010;2024-01-11T12:05:17;21.43;;;15.50;;
54460;SDS011;69977;49.414;11.010;2024-01-11T12:07:46;25.63;;;14.63;;
54460;SDS011;69977;49.414;11.010;2024-01-11T12:10:12;23.40;;;15.87;;
54460;SDS011;69977;49.414;11.010;2024-01-11T12:12:39;30.17;;;16.53;;
54460;SDS011;69977;49.414;11.010;2024-01-11T12:15:05;21.07;;;15.27;;
54460;SDS011;69977;49.414;11.010;2024-01-11T12:17:31;23.90;;;14.97;;
54460;SDS011;69977;49.414;11.010;2024-01-11T12:19:57;22.90;;;15.70;;
54460;SDS011;69977;49.414;11.010;2024-01-11T12:22:23;27.47;;;15.50;;
54460;SDS011;69977;49.414;11.010;2024-01-11T12:24:49;23.30;;;14.37;;
54460;SDS011;69977;49.414;11.010;2024-01-11T12:27:15;20.47;;;14.37;;
54460;SDS011;69977;49.414;11.010;2024-01-11T12:29:41;20.80;;;13.87;;
54460;SDS011;69977;49.414;11.010;2024-01-11T12:32:07;22.13;;;14.53;;
54460;SDS011;69977;49.414;11.010;2024-01-11T12:34:36;24.23;;;14.23;;
54460;SDS011;69977;49.414;11.010;2024-01-11T12:37:02;24.53;;;15.27;;
54460;SDS011;69977;49.414;11.010;2024-01-11T12:39:30;18.20;;;14.27;;
54460;SDS011;69977;49.414;11.010;2024-01-11T12:41:56;20.93;;;14.40;;
54460;SDS011;69977;49.414;11.010;2024-01-11T12:44:23;22.20;;;15.33;;
54460;SDS011;69977;49.414;11.010;2024-01-11T12:46:49;19.60;;;14.40;;
54460;SDS011;69977;49.414;11.010;2024-01-11T12:49:18;21.57;;;13.37;;
54460;SDS011;69977;49.414;11.010;2024-01-11T12:51:45;22.23;;;14.07;;
54460;SDS011;69977;49.414;11.010;2024-01-11T12:54:14;23.40;;;14.43;;
54460;SDS011;69977;49.414;11.010;2024-01-11T12:56:40;22.03;;;14.63;;
54460;SDS011;69977;49.414;11.010;2024-01-11T12:59:07;22.93;;;14.40;;
54460;SDS011;69977;49.414;11.010;2024-01-11T13:01:37;20.47;;;14.60;;
54460;SDS011;69977;49.414;11.010;2024-01-11T13:04:04;24.70;;;14.77;;
54460;SDS011;69977;49.414;11.010;2024-01-11T13:06:31;22.30;;;14.60;;
54460;SDS011;69977;49.414;11.010;2024-01-11T13:08:57;20.73;;;14.50;;
54460;SDS011;69977;49.414;11.010;2024-01-11T13:11:23;22.13;;;14.00;;
54460;SDS011;69977;49.414;11.010;2024-01-11T13:13:50;18.53;;;13.20;;
54460;SDS011;69977;49.414;11.010;2024-01-11T13:16:19;19.47;;;13.13;;
54460;SDS011;69977;49.414;11.010;2024-01-11T13:18:45;22.57;;;14.40;;
54460;SDS011;69977;49.414;11.010;2024-01-11T13:21:11;20.50;;;14.20;;
54460;SDS011;69977;49.414;11.010;2024-01-11T13:23:38;17.67;;;12.77;;
54460;SDS011;69977;49.414;11.010;2024-01-11T13:26:05;19.37;;;12.70;;
54460;SDS011;69977;49.414;11.010;2024-01-11T13:28:32;18.93;;;12.63;;
54460;SDS011;69977;49.414;11.010;2024-01-11T13:31:01;17.77;;;12.60;;
54460;SDS011;69977;49.414;11.010;2024-01-11T13:33:27;21.97;;;13.20;;
54460;SDS011;69977;49.414;11.010;2024-01-11T13:35:53;17.23;;;12.70;;
54460;SDS011;69977;49.414;11.010;2024-01-11T13:38:19;25.37;;;12.83;;
54460;SDS011;69977;49.414;11.010;2024-01-11T13:40:46;15.50;;;12.27;;
54460;SDS011;69977;49.414;11.010;2024-01-11T13:43:12;19.20;;;13.40;;
54460;SDS011;69977;49.414;11.010;2024-01-11T13:45:37;16.80;;;12.40;;
54460;SDS011;69977;49.414;11.010;2024-01-11T13:48:04;19.90;;;13.37;;
54460;SDS011;69977;49.414;11.010;2024-01-11T13:50:32;19.30;;;13.33;;
54460;SDS011;69977;49.414;11.010;2024-01-11T13:52:58;17.87;;;13.77;;
54460;SDS011;69977;49.414;11.010;2024-01-11T13:55:24;15.33;;;12.23;;
54460;SDS011;69977;49.414;11.010;2024-01-11T13:57:50;20.23;;;12.93;;
54460;SDS011;69977;49.414;11.010;2024-01-11T14:00:16;16.60;;;11.77;;
54460;SDS011;69977;49.414;11.010;2024-01-11T14:02:43;17.73;;;12.23;;
54460;SDS011;69977;49.414;11.010;2024-01-11T14:05:10;18.87;;;12.93;;
54460;SDS011;69977;49.414;11.010;2024-01-11T14:07:42;19.17;;;13.37;;
54460;SDS011;69977;49.414;11.010;2024-01-11T14:10:13;18.63;;;12.33;;